createdAt,value
2023-04-06T06:20:36.539Z,100.00
2023-04-06T06:30:36.477Z,100.00
2023-04-06T06:40:36.734Z,100.00
2023-04-06T06:50:36.609Z,99.29
2023-04-06T07:00:36.459Z,93.99
2023-04-06T07:10:36.551Z,89.06
2023-04-06T07:20:36.507Z,83.58
2023-04-06T07:30:37.137Z,81.11
2023-04-06T07:40:36.634Z,77.90
2023-04-06T07:50:36.584Z,74.29
2023-04-06T08:00:36.692Z,72.68
2023-04-06T08:10:36.631Z,69.08
2023-04-06T08:20:36.816Z,67.71
2023-04-06T08:30:36.555Z,64.71
2023-04-06T08:40:36.852Z,61.22
2023-04-06T08:50:36.914Z,58.70
2023-04-06T09:00:36.931Z,54.43
2023-04-06T09:10:37.030Z,55.85
2023-04-06T09:20:36.901Z,53.66
2023-04-06T09:30:37.178Z,53.51
2023-04-06T09:40:38.681Z,52.58
2023-04-06T09:50:37.022Z,53.24
2023-04-06T10:00:37.146Z,52.32
2023-04-06T10:10:36.896Z,51.95
2023-04-06T10:20:36.993Z,52.89
2023-04-06T10:30:37.047Z,50.18
2023-04-06T10:40:36.913Z,50.40
2023-04-06T10:50:37.210Z,47.53
2023-04-06T11:00:49.157Z,46.93
2023-04-06T11:10:36.878Z,43.90
2023-04-06T11:20:36.846Z,43.14
2023-04-06T11:30:37.044Z,43.37
2023-04-06T11:40:37.240Z,42.94
2023-04-06T11:50:37.068Z,41.78
2023-04-06T12:00:37.005Z,42.47
2023-04-06T12:10:37.208Z,42.90
2023-04-06T12:20:37.145Z,42.86
2023-04-06T12:30:37.212Z,43.25
2023-04-06T12:40:37.188Z,43.31
2023-04-06T12:50:37.138Z,42.61
2023-04-06T13:00:37.221Z,42.40
2023-04-06T13:10:37.172Z,41.70
2023-04-06T13:20:38.154Z,40.09
2023-04-06T13:30:37.193Z,42.85
2023-04-06T13:40:37.062Z,40.94
2023-04-06T13:50:37.055Z,42.05
2023-04-06T14:00:37.444Z,42.66
2023-04-06T14:10:37.262Z,40.74
2023-04-06T14:20:37.117Z,40.48
2023-04-06T14:30:37.415Z,41.14
2023-04-06T14:40:37.356Z,39.87
2023-04-06T14:50:37.229Z,38.55
2023-04-06T15:00:37.183Z,39.78
2023-04-06T15:10:37.259Z,37.73
2023-04-06T15:20:37.306Z,38.66
2023-04-06T15:30:37.268Z,38.57
2023-04-06T15:40:37.655Z,39.78
2023-04-06T15:50:37.413Z,39.33
2023-04-06T16:00:37.374Z,40.29
2023-04-06T16:10:37.333Z,40.52
2023-04-06T16:20:37.515Z,40.02
2023-04-06T16:30:37.451Z,40.78
2023-04-06T16:40:37.444Z,41.35
2023-04-06T16:50:37.407Z,42.61
2023-04-06T17:00:37.470Z,41.17
2023-04-06T17:10:41.843Z,42.80
2023-04-06T17:20:37.393Z,42.35
2023-04-06T17:30:37.486Z,43.55
2023-04-06T17:40:37.531Z,47.38
2023-04-06T17:50:37.490Z,49.44
2023-04-06T18:00:37.659Z,50.33
2023-04-06T18:10:37.486Z,50.23
2023-04-06T18:20:37.490Z,53.52
2023-04-06T18:30:37.569Z,55.22
2023-04-06T18:40:37.806Z,55.29
2023-04-06T18:50:38.026Z,57.18
2023-04-06T19:00:38.046Z,55.86
2023-04-06T19:10:38.107Z,57.49
2023-04-06T19:20:38.179Z,59.98
